sensor_id;sensor_type;location;lat;lon;timestamp;pressure;altitude;pressure_sealevel;temperature;humidity
75945;BME280;64628;50.104;14.614;2024-01-11T00:01:37;99964.66;;;-4.94;39.08
75945;BME280;64628;50.104;14.614;2024-01-11T00:04:02;99958.45;;;-4.57;38.82
75945;BME280;64628;50.104;14.614;2024-01-11T00:06:28;99957.63;;;-4.83;39.03
75945;BME280;64628;50.104;14.614;2024-01-11T00:08:54;99953.70;;;-4.83;39.27
75945;BME280;64628;50.104;14.614;2024-01-11T00:11:19;99952.83;;;-5.15;38.84
75945;BME280;64628;50.104;14.614;2024-01-11T00:13:45;99958.04;;;-4.74;38.82
75945;BME280;64628;50.104;14.614;2024-01-11T00:16:10;99953.34;;;-4.81;38.85
75945;BME280;64628;50.104;14.614;2024-01-11T00:18:36;99950.92;;;-5.04;38.67
75945;BME280;64628;50.104;14.614;2024-01-11T00:21:01;99943.58;;;-4.83;38.67
75945;BME280;64628;50.104;14.614;2024-01-11T00:23:26;99948.91;;;-4.88;38.77
75945;BME280;64628;50.104;14.614;2024-01-11T00:25:51;99954.84;;;-5.37;38.82
75945;BME280;64628;50.104;14.614;2024-01-11T00:28:17;99954.28;;;-5.21;38.70
75945;BME280;64628;50.104;14.614;2024-01-11T00:30:42;99945.93;;;-5.23;38.96
75945;BME280;64628;50.104;14.614;2024-01-11T00:33:07;99946.83;;;-5.28;39.43
75945;BME280;64628;50.104;14.614;2024-01-11T00:35:33;99947.43;;;-4.99;39.17
75945;BME280;64628;50.104;14.614;2024-01-11T00:37:59;99950.15;;;-5.37;38.90
75945;BME280;64628;50.104;14.614;2024-01-11T00:40:24;99944.82;;;-5.38;38.75
75945;BME280;64628;50.104;14.614;2024-01-11T00:42:49;99941.79;;;-5.20;38.98
75945;BME280;64628;50.104;14.614;2024-01-11T00:45:15;99939.56;;;-5.98;38.91
75945;BME280;64628;50.104;14.614;2024-01-11T00:47:40;99937.51;;;-5.29;39.00
75945;BME280;64628;50.104;14.614;2024-01-11T00:50:06;99934.33;;;-5.28;39.24
75945;BME280;64628;50.104;14.614;2024-01-11T00:52:31;99930.10;;;-5.40;38.85
75945;BME280;64628;50.104;14.614;2024-01-11T00:54:57;99925.44;;;-5.29;39.01
75945;BME280;64628;50.104;14.614;2024-01-11T00:57:21;99920.14;;;-5.39;39.27
75945;BME280;64628;50.104;14.614;2024-01-11T00:59:47;99915.24;;;-5.61;39.36
75945;BME280;64628;50.104;14.614;2024-01-11T01:02:13;99916.10;;;-5.61;39.19
75945;BME280;64628;50.104;14.614;2024-01-11T01:04:39;99919.66;;;-5.35;38.72
75945;BME280;64628;50.104;14.614;2024-01-11T01:07:04;99920.71;;;-5.48;39.65
75945;BME280;64628;50.104;14.614;2024-01-11T01:09:29;99919.03;;;-5.50;39.81
75945;BME280;64628;50.104;14.614;2024-01-11T01:11:55;99920.86;;;-5.51;39.67
75945;BME280;64628;50.104;14.614;2024-01-11T01:14:20;99929.38;;;-5.50;39.56
75945;BME280;64628;50.104;14.614;2024-01-11T01:16:46;99939.40;;;-5.46;39.21
75945;BME280;64628;50.104;14.614;2024-01-11T01:19:11;99942.23;;;-5.55;39.11
75945;BME280;64628;50.104;14.614;2024-01-11T01:21:36;99935.84;;;-5.49;39.16
75945;BME280;64628;50.104;14.614;2024-01-11T01:24:02;99932.17;;;-5.52;39.30
75945;BME280;64628;50.104;14.614;2024-01-11T01:26:28;99926.36;;;-5.50;39.40
75945;BME280;64628;50.104;14.614;2024-01-11T01:28:53;99925.08;;;-5.66;39.54
75945;BME280;64628;50.104;14.614;2024-01-11T01:31:19;99929.66;;;-5.39;39.41
75945;BME280;64628;50.104;14.614;2024-01-11T01:33:44;99929.39;;;-5.65;39.39
75945;BME280;64628;50.104;14.614;2024-01-11T01:36:10;99932.62;;;-5.64;39.20
75945;BME280;64628;50.104;14.614;2024-01-11T01:38:35;99935.78;;;-5.68;38.96
75945;BME280;64628;50.104;14.614;2024-01-11T01:41:00;99931.72;;;-5.75;38.86
75945;BME280;64628;50.104;14.614;2024-01-11T01:43:25;99933.41;;;-5.87;39.09
75945;BME280;64628;50.104;14.614;2024-01-11T01:45:51;99935.52;;;-5.98;39.45
75945;BME280;64628;50.104;14.614;2024-01-11T01:48:16;99932.34;;;-6.00;39.28
75945;BME280;64628;50.104;14.614;2024-01-11T01:50:42;99928.29;;;-5.88;39.41
75945;BME280;64628;50.104;14.614;2024-01-11T01:53:07;99923.66;;;-5.87;39.42
75945;BME280;64628;50.104;14.614;2024-01-11T01:55:32;99919.13;;;-5.90;39.49
75945;BME280;64628;50.104;14.614;2024-01-11T01:58:00;99908.50;;;-5.97;39.51
75945;BME280;64628;50.104;14.614;2024-01-11T02:00:23;99905.56;;;-6.06;39.66
75945;BME280;64628;50.104;14.614;2024-01-11T02:02:50;99905.48;;;-6.00;39.46
75945;BME280;64628;50.104;14.614;2024-01-11T02:05:16;99900.97;;;-5.95;39.30
75945;BME280;64628;50.104;14.614;2024-01-11T02:07:40;99900.84;;;-5.86;39.14
75945;BME280;64628;50.104;14.614;2024-01-11T02:10:07;99903.94;;;-5.92;39.10
75945;BME280;64628;50.104;14.614;2024-01-11T02:12:31;99904.95;;;-5.73;39.07
75945;BME280;64628;50.104;14.614;2024-01-11T02:14:56;99900.22;;;-6.09;38.92
75945;BME280;64628;50.104;14.614;2024-01-11T02:17:22;99898.65;;;-6.12;39.02
75945;BME280;64628;50.104;14.614;2024-01-11T02:19:47;99895.15;;;-6.04;39.93
75945;BME280;64628;50.104;14.614;2024-01-11T02:22:20;99892.14;;;-6.28;40.20
75945;BME280;64628;50.104;14.614;2024-01-11T02:24:38;99894.64;;;-6.21;40.13
75945;BME280;64628;50.104;14.614;2024-01-11T02:27:05;99896.98;;;-5.88;39.67
75945;BME280;64628;50.104;14.614;2024-01-11T02:29:30;99893.03;;;-6.20;39.73
75945;BME280;64628;50.104;14.614;2024-01-11T02:31:55;99890.21;;;-6.24;40.22
75945;BME280;64628;50.104;14.614;2024-01-11T02:34:21;99888.50;;;-6.08;40.02
75945;BME280;64628;50.104;14.614;2024-01-11T02:36:45;99888.86;;;-6.10;39.78
75945;BME280;64628;50.104;14.614;2024-01-11T02:39:11;99889.49;;;-6.15;39.84
75945;BME280;64628;50.104;14.614;2024-01-11T02:41:37;99893.61;;;-5.98;39.67
75945;BME280;64628;50.104;14.614;2024-01-11T02:44:02;99893.51;;;-6.21;39.74
75945;BME280;64628;50.104;14.614;2024-01-11T02:46:27;99897.27;;;-5.85;39.96
75945;BME280;64628;50.104;14.614;2024-01-11T02:48:52;99899.54;;;-6.06;39.81
75945;BME280;64628;50.104;14.614;2024-01-11T02:51:17;99895.05;;;-6.10;39.97
75945;BME280;64628;50.104;14.614;2024-01-11T02:53:43;99892.60;;;-6.19;40.30
75945;BME280;64628;50.104;14.614;2024-01-11T02:56:09;99892.84;;;-6.12;40.19
75945;BME280;64628;50.104;14.614;2024-01-11T02:58:34;99896.88;;;-6.12;40.11
75945;BME280;64628;50.104;14.614;2024-01-11T03:00:59;99900.40;;;-6.04;39.47
75945;BME280;64628;50.104;14.614;2024-01-11T03:03:25;99906.78;;;-6.11;39.14
75945;BME280;64628;50.104;14.614;2024-01-11T03:05:50;99919.19;;;-6.19;38.96
75945;BME280;64628;50.104;14.614;2024-01-11T03:08:16;99921.23;;;-6.19;38.85
75945;BME280;64628;50.104;14.614;2024-01-11T03:10:41;99910.00;;;-6.29;38.99
75945;BME280;64628;50.104;14.614;2024-01-11T03:13:07;99902.38;;;-6.22;38.93
75945;BME280;64628;50.104;14.614;2024-01-11T03:15:32;99901.76;;;-6.30;39.09
75945;BME280;64628;50.104;14.614;2024-01-11T03:17:57;99899.31;;;-6.25;38.86
75945;BME280;64628;50.104;14.614;2024-01-11T03:20:23;99896.10;;;-6.09;38.58
75945;BME280;64628;50.104;14.614;2024-01-11T03:22:49;99895.50;;;-6.25;38.83
75945;BME280;64628;50.104;14.614;2024-01-11T03:25:14;99892.79;;;-6.53;39.30
75945;BME280;64628;50.104;14.614;2024-01-11T03:27:40;99893.69;;;-6.08;39.43
75945;BME280;64628;50.104;14.614;2024-01-11T03:30:06;99896.30;;;-6.25;39.14
75945;BME280;64628;50.104;14.614;2024-01-11T03:32:31;99901.14;;;-6.27;39.18
75945;BME280;64628;50.104;14.614;2024-01-11T03:34:56;99902.47;;;-6.41;39.03
75945;BME280;64628;50.104;14.614;2024-01-11T03:37:22;99895.83;;;-6.70;38.82
75945;BME280;64628;50.104;14.614;2024-01-11T03:39:47;99897.83;;;-6.69;39.09
75945;BME280;64628;50.104;14.614;2024-01-11T03:42:12;99897.33;;;-6.48;38.85
75945;BME280;64628;50.104;14.614;2024-01-11T03:44:38;99904.01;;;-6.82;38.78
75945;BME280;64628;50.104;14.614;2024-01-11T03:47:03;99913.48;;;-6.55;38.49
75945;BME280;64628;50.104;14.614;2024-01-11T03:49:28;99911.59;;;-6.35;38.45
75945;BME280;64628;50.104;14.614;2024-01-11T03:51:54;99902.37;;;-6.86;38.54
75945;BME280;64628;50.104;14.614;2024-01-11T03:54:20;99904.17;;;-6.43;38.59
75945;BME280;64628;50.104;14.614;2024-01-11T03:56:45;99907.55;;;-6.56;39.03
75945;BME280;64628;50.104;14.614;2024-01-11T03:59:10;99911.29;;;-7.08;39.18
75945;BME280;64628;50.104;14.614;2024-01-11T04:01:39;99918.07;;;-6.97;38.83
75945;BME280;64628;50.104;14.614;2024-01-11T04:04:00;99919.42;;;-6.82;38.66
75945;BME280;64628;50.104;14.614;2024-01-11T04:06:26;99918.14;;;-6.66;39.08
75945;BME280;64628;50.104;14.614;2024-01-11T04:08:51;99914.33;;;-6.64;39.04
75945;BME280;64628;50.104;14.614;2024-01-11T04:11:17;99914.64;;;-6.68;38.91
75945;BME280;64628;50.104;14.614;2024-01-11T04:13:42;99913.99;;;-6.68;38.61
75945;BME280;64628;50.104;14.614;2024-01-11T04:16:08;99912.25;;;-6.62;38.51
75945;BME280;64628;50.104;14.614;2024-01-11T04:18:33;99916.78;;;-6.59;38.55
75945;BME280;64628;50.104;14.614;2024-01-11T04:20:58;99916.46;;;-6.93;38.81
75945;BME280;64628;50.104;14.614;2024-01-11T04:23:23;99923.47;;;-6.73;38.63
75945;BME280;64628;50.104;14.614;2024-01-11T04:25:48;99933.27;;;-6.80;38.76
75945;BME280;64628;50.104;14.614;2024-01-11T04:28:14;99931.13;;;-6.79;38.83
75945;BME280;64628;50.104;14.614;2024-01-11T04:30:39;99919.26;;;-6.86;38.77
75945;BME280;64628;50.104;14.614;2024-01-11T04:33:05;99919.77;;;-6.90;39.06
75945;BME280;64628;50.104;14.614;2024-01-11T04:35:30;99925.45;;;-6.93;39.18
75945;BME280;64628;50.104;14.614;2024-01-11T04:37:55;99912.76;;;-6.86;38.62
75945;BME280;64628;50.104;14.614;2024-01-11T04:40:21;99893.84;;;-6.86;38.53
75945;BME280;64628;50.104;14.614;2024-01-11T04:42:47;99888.36;;;-6.94;39.31
75945;BME280;64628;50.104;14.614;2024-01-11T04:45:12;99882.65;;;-6.63;39.39
75945;BME280;64628;50.104;14.614;2024-01-11T04:47:38;99877.10;;;-6.80;39.36
75945;BME280;64628;50.104;14.614;2024-01-11T04:50:04;99888.62;;;-6.77;39.35
75945;BME280;64628;50.104;14.614;2024-01-11T04:52:29;99896.77;;;-6.81;39.15
75945;BME280;64628;50.104;14.614;2024-01-11T04:54:54;99884.31;;;-6.79;38.95
75945;BME280;64628;50.104;14.614;2024-01-11T04:57:20;99887.06;;;-6.87;39.60
75945;BME280;64628;50.104;14.614;2024-01-11T04:59:45;99896.63;;;-7.01;39.79
75945;BME280;64628;50.104;14.614;2024-01-11T05:02:10;99892.87;;;-7.00;39.31
75945;BME280;64628;50.104;14.614;2024-01-11T05:04:36;99881.78;;;-6.69;39.08
75945;BME280;64628;50.104;14.614;2024-01-11T05:07:01;99879.38;;;-6.86;39.82
75945;BME280;64628;50.104;14.614;2024-01-11T05:09:26;99889.35;;;-7.04;39.74
75945;BME280;64628;50.104;14.614;2024-01-11T05:11:51;99887.12;;;-6.85;39.33
75945;BME280;64628;50.104;14.614;2024-01-11T05:14:17;99884.22;;;-7.09;39.71
75945;BME280;64628;50.104;14.614;2024-01-11T05:16:42;99891.01;;;-7.06;39.88
75945;BME280;64628;50.104;14.614;2024-01-11T05:19:08;99886.25;;;-6.95;39.98
75945;BME280;64628;50.104;14.614;2024-01-11T05:21:33;99886.81;;;-7.02;40.25
75945;BME280;64628;50.104;14.614;2024-01-11T05:23:58;99890.26;;;-7.20;39.85
75945;BME280;64628;50.104;14.614;2024-01-11T05:26:23;99894.71;;;-6.75;39.92
75945;BME280;64628;50.104;14.614;2024-01-11T05:28:49;99905.80;;;-6.85;39.70
75945;BME280;64628;50.104;14.614;2024-01-11T05:31:15;99905.66;;;-6.58;39.53
75945;BME280;64628;50.104;14.614;2024-01-11T05:33:39;99902.29;;;-6.65;39.53
75945;BME280;64628;50.104;14.614;2024-01-11T05:36:06;99898.05;;;-6.72;39.77
75945;BME280;64628;50.104;14.614;2024-01-11T05:38:30;99901.09;;;-6.86;40.04
75945;BME280;64628;50.104;14.614;2024-01-11T05:40:55;99906.86;;;-6.64;39.61
75945;BME280;64628;50.104;14.614;2024-01-11T05:43:22;99906.55;;;-6.71;39.68
75945;BME280;64628;50.104;14.614;2024-01-11T05:45:46;99904.94;;;-6.62;39.52
75945;BME280;64628;50.104;14.614;2024-01-11T05:48:12;99899.17;;;-6.78;39.33
75945;BME280;64628;50.104;14.614;2024-01-11T05:50:37;99895.77;;;-6.76;39.66
75945;BME280;64628;50.104;14.614;2024-01-11T05:53:03;99897.22;;;-6.68;39.50
75945;BME280;64628;50.104;14.614;2024-01-11T05:55:28;99895.54;;;-6.80;39.70
75945;BME280;64628;50.104;14.614;2024-01-11T05:57:53;99901.30;;;-6.92;39.62
75945;BME280;64628;50.104;14.614;2024-01-11T06:00:19;99906.28;;;-6.86;39.50
75945;BME280;64628;50.104;14.614;2024-01-11T06:02:44;99904.72;;;-6.62;39.48
75945;BME280;64628;50.104;14.614;2024-01-11T06:05:10;99899.74;;;-6.82;39.35
75945;BME280;64628;50.104;14.614;2024-01-11T06:07:35;99905.99;;;-6.65;39.46
75945;BME280;64628;50.104;14.614;2024-01-11T06:10:01;99902.95;;;-6.71;39.50
75945;BME280;64628;50.104;14.614;2024-01-11T06:12:26;99898.70;;;-6.82;39.60
75945;BME280;64628;50.104;14.614;2024-01-11T06:14:52;99895.82;;;-6.77;39.65
75945;BME280;64628;50.104;14.614;2024-01-11T06:17:17;99895.09;;;-6.97;39.67
75945;BME280;64628;50.104;14.614;2024-01-11T06:19:43;99893.06;;;-6.81;39.71
75945;BME280;64628;50.104;14.614;2024-01-11T06:22:08;99903.20;;;-6.65;39.52
75945;BME280;64628;50.104;14.614;2024-01-11T06:24:33;99910.20;;;-6.63;39.52
75945;BME280;64628;50.104;14.614;2024-01-11T06:26:59;99913.05;;;-6.62;39.47
75945;BME280;64628;50.104;14.614;2024-01-11T06:29:24;99916.61;;;-6.51;39.33
75945;BME280;64628;50.104;14.614;2024-01-11T06:31:50;99903.12;;;-6.83;39.22
75945;BME280;64628;50.104;14.614;2024-01-11T06:34:15;99911.43;;;-6.64;39.50
75945;BME280;64628;50.104;14.614;2024-01-11T06:36:41;99908.88;;;-6.83;39.43
75945;BME280;64628;50.104;14.614;2024-01-11T06:39:06;99916.54;;;-6.83;39.78
75945;BME280;64628;50.104;14.614;2024-01-11T06:41:31;99909.58;;;-6.87;40.00
75945;BME280;64628;50.104;14.614;2024-01-11T06:43:57;99908.66;;;-6.79;39.84
75945;BME280;64628;50.104;14.614;2024-01-11T06:46:23;99916.09;;;-7.05;39.56
75945;BME280;64628;50.104;14.614;2024-01-11T06:48:47;99919.11;;;-6.55;39.50
75945;BME280;64628;50.104;14.614;2024-01-11T06:51:15;99920.62;;;-6.46;39.52
75945;BME280;64628;50.104;14.614;2024-01-11T06:53:38;99912.18;;;-6.35;39.06
75945;BME280;64628;50.104;14.614;2024-01-11T06:58:28;99918.60;;;-6.53;39.04
75945;BME280;64628;50.104;14.614;2024-01-11T07:00:54;99913.51;;;-6.62;39.24
75945;BME280;64628;50.104;14.614;2024-01-11T07:03:19;99911.31;;;-7.03;39.57
75945;BME280;64628;50.104;14.614;2024-01-11T07:05:45;99913.82;;;-6.74;39.66
75945;BME280;64628;50.104;14.614;2024-01-11T07:08:10;99911.47;;;-6.70;39.63
75945;BME280;64628;50.104;14.614;2024-01-11T07:10:36;99912.28;;;-6.37;39.60
75945;BME280;64628;50.104;14.614;2024-01-11T07:13:01;99907.48;;;-6.16;39.37
75945;BME280;64628;50.104;14.614;2024-01-11T07:15:27;99910.17;;;-6.64;39.25
75945;BME280;64628;50.104;14.614;2024-01-11T07:17:52;99906.70;;;-6.23;39.11
75945;BME280;64628;50.104;14.614;2024-01-11T07:20:17;99907.79;;;-6.08;39.19
75945;BME280;64628;50.104;14.614;2024-01-11T07:22:42;99903.74;;;-6.58;39.29
75945;BME280;64628;50.104;14.614;2024-01-11T07:25:08;99909.39;;;-6.10;39.04
75945;BME280;64628;50.104;14.614;2024-01-11T07:27:33;99916.97;;;-6.08;38.78
75945;BME280;64628;50.104;14.614;2024-01-11T07:29:59;99907.35;;;-5.87;38.63
75945;BME280;64628;50.104;14.614;2024-01-11T07:32:24;99911.14;;;-5.81;38.73
75945;BME280;64628;50.104;14.614;2024-01-11T07:34:50;99910.75;;;-5.65;38.55
75945;BME280;64628;50.104;14.614;2024-01-11T07:37:15;99911.38;;;-5.74;38.89
75945;BME280;64628;50.104;14.614;2024-01-11T07:39:41;99898.52;;;-5.70;38.92
75945;BME280;64628;50.104;14.614;2024-01-11T07:42:06;99890.88;;;-5.42;38.94
75945;BME280;64628;50.104;14.614;2024-01-11T07:44:32;99895.39;;;-5.50;38.82
75945;BME280;64628;50.104;14.614;2024-01-11T07:46:57;99875.13;;;-5.28;38.42
75945;BME280;64628;50.104;14.614;2024-01-11T07:49:23;99860.90;;;-5.06;37.78
75945;BME280;64628;50.104;14.614;2024-01-11T07:51:49;99861.13;;;-4.77;37.25
75945;BME280;64628;50.104;14.614;2024-01-11T07:54:14;99855.14;;;-4.57;37.09
75945;BME280;64628;50.104;14.614;2024-01-11T07:56:40;99853.41;;;-4.76;37.22
75945;BME280;64628;50.104;14.614;2024-01-11T07:59:06;99856.06;;;-4.25;36.63
75945;BME280;64628;50.104;14.614;2024-01-11T08:01:32;99853.93;;;-4.21;36.68
75945;BME280;64628;50.104;14.614;2024-01-11T08:03:57;99853.74;;;-4.20;36.58
75945;BME280;64628;50.104;14.614;2024-01-11T08:06:22;99863.24;;;-4.23;36.57
75945;BME280;64628;50.104;14.614;2024-01-11T08:08:49;99874.23;;;-4.05;36.29
75945;BME280;64628;50.104;14.614;2024-01-11T08:11:13;99864.23;;;-3.58;36.01
75945;BME280;64628;50.104;14.614;2024-01-11T08:13:38;99862.97;;;-3.05;35.14
75945;BME280;64628;50.104;14.614;2024-01-11T08:16:04;99850.26;;;-2.34;34.11
75945;BME280;64628;50.104;14.614;2024-01-11T08:18:30;99833.00;;;-1.86;33.01
75945;BME280;64628;50.104;14.614;2024-01-11T08:20:55;99848.26;;;-1.42;31.99
75945;BME280;64628;50.104;14.614;2024-01-11T08:23:20;99873.33;;;-1.45;31.72
75945;BME280;64628;50.104;14.614;2024-01-11T08:25:46;99871.53;;;-1.14;32.04
75945;BME280;64628;50.104;14.614;2024-01-11T08:28:11;99853.59;;;-1.44;32.27
75945;BME280;64628;50.104;14.614;2024-01-11T08:30:37;99838.78;;;-1.42;32.34
75945;BME280;64628;50.104;14.614;2024-01-11T08:33:03;99837.61;;;-1.39;32.43
75945;BME280;64628;50.104;14.614;2024-01-11T08:35:28;99832.97;;;-1.66;32.82
75945;BME280;64628;50.104;14.614;2024-01-11T08:37:53;99824.07;;;-1.46;32.75
75945;BME280;64628;50.104;14.614;2024-01-11T08:40:19;99815.41;;;-0.69;32.27
75945;BME280;64628;50.104;14.614;2024-01-11T08:42:44;99813.97;;;-0.50;31.84
75945;BME280;64628;50.104;14.614;2024-01-11T08:45:10;99813.07;;;-1.32;32.26
75945;BME280;64628;50.104;14.614;2024-01-11T08:47:36;99805.07;;;-0.88;32.09
75945;BME280;64628;50.104;14.614;2024-01-11T08:50:01;99810.79;;;-0.04;31.73
75945;BME280;64628;50.104;14.614;2024-01-11T08:52:26;99820.95;;;-0.48;31.94
75945;BME280;64628;50.104;14.614;2024-01-11T08:54:51;99818.88;;;0.20;31.51
75945;BME280;64628;50.104;14.614;2024-01-11T08:57:17;99817.85;;;0.85;30.64
75945;BME280;64628;50.104;14.614;2024-01-11T08:59:43;99815.27;;;0.40;30.96
75945;BME280;64628;50.104;14.614;2024-01-11T09:02:08;99812.99;;;0.67;31.07
75945;BME280;64628;50.104;14.614;2024-01-11T09:04:33;99824.19;;;1.82;29.19
75945;BME280;64628;50.104;14.614;2024-01-11T09:06:59;99840.15;;;2.77;27.75
75945;BME280;64628;50.104;14.614;2024-01-11T09:09:24;99840.49;;;2.84;27.71
75945;BME280;64628;50.104;14.614;2024-01-11T09:11:50;99843.15;;;3.47;27.00
75945;BME280;64628;50.104;14.614;2024-01-11T09:14:16;99837.71;;;4.80;25.30
75945;BME280;64628;50.104;14.614;2024-01-11T09:16:41;99832.40;;;5.47;24.54
75945;BME280;64628;50.104;14.614;2024-01-11T09:19:06;99820.24;;;4.29;25.25
75945;BME280;64628;50.104;14.614;2024-01-11T09:21:31;99835.98;;;4.86;25.05
75945;BME280;64628;50.104;14.614;2024-01-11T09:23:56;99842.65;;;5.69;24.11
75945;BME280;64628;50.104;14.614;2024-01-11T09:26:22;99833.54;;;6.71;23.06
75945;BME280;64628;50.104;14.614;2024-01-11T09:28:47;99827.46;;;9.13;20.27
75945;BME280;64628;50.104;14.614;2024-01-11T09:31:13;99819.51;;;10.74;19.00
75945;BME280;64628;50.104;14.614;2024-01-11T09:33:38;99817.64;;;11.47;17.81
75945;BME280;64628;50.104;14.614;2024-01-11T09:36:04;99813.04;;;10.67;17.81
75945;BME280;64628;50.104;14.614;2024-01-11T09:38:29;99812.68;;;8.82;19.57
75945;BME280;64628;50.104;14.614;2024-01-11T09:41:01;99809.12;;;7.91;20.73
75945;BME280;64628;50.104;14.614;2024-01-11T09:43:19;99804.59;;;7.93;20.51
75945;BME280;64628;50.104;14.614;2024-01-11T09:45:45;99816.86;;;7.38;21.19
75945;BME280;64628;50.104;14.614;2024-01-11T09:48:11;99829.90;;;6.76;21.92
75945;BME280;64628;50.104;14.614;2024-01-11T09:50:36;99838.22;;;6.15;22.48
75945;BME280;64628;50.104;14.614;2024-01-11T09:53:02;99827.55;;;5.80;23.14
75945;BME280;64628;50.104;14.614;2024-01-11T09:55:26;99822.48;;;5.51;23.47
75945;BME280;64628;50.104;14.614;2024-01-11T09:57:55;99810.15;;;7.11;22.14
75945;BME280;64628;50.104;14.614;2024-01-11T10:00:19;99801.96;;;8.60;20.37
75945;BME280;64628;50.104;14.614;2024-01-11T10:02:43;99803.25;;;9.35;19.58
75945;BME280;64628;50.104;14.614;2024-01-11T10:05:09;99808.74;;;9.68;19.32
75945;BME280;64628;50.104;14.614;2024-01-11T10:07:34;99802.15;;;10.27;18.97
75945;BME280;64628;50.104;14.614;2024-01-11T10:09:59;99795.19;;;12.13;17.33
75945;BME280;64628;50.104;14.614;2024-01-11T10:12:25;99790.82;;;13.69;15.97
75945;BME280;64628;50.104;14.614;2024-01-11T10:14:50;99775.99;;;14.82;14.94
75945;BME280;64628;50.104;14.614;2024-01-11T10:17:15;99775.40;;;15.50;13.99
75945;BME280;64628;50.104;14.614;2024-01-11T10:19:41;99777.49;;;16.56;13.33
75945;BME280;64628;50.104;14.614;2024-01-11T10:22:08;99769.61;;;18.23;12.21
75945;BME280;64628;50.104;14.614;2024-01-11T10:24:33;99754.71;;;18.59;11.74
75945;BME280;64628;50.104;14.614;2024-01-11T10:26:58;99757.11;;;17.37;12.14
75945;BME280;64628;50.104;14.614;2024-01-11T10:29:27;99762.51;;;16.62;12.82
75945;BME280;64628;50.104;14.614;2024-01-11T10:31:49;99765.62;;;17.66;12.24
75945;BME280;64628;50.104;14.614;2024-01-11T10:34:14;99775.05;;;16.82;12.51
75945;BME280;64628;50.104;14.614;2024-01-11T10:36:44;99790.39;;;15.72;13.13
75945;BME280;64628;50.104;14.614;2024-01-11T10:39:05;99777.55;;;14.13;14.41
75945;BME280;64628;50.104;14.614;2024-01-11T10:41:32;99769.88;;;12.42;15.43
75945;BME280;64628;50.104;14.614;2024-01-11T10:43:58;99768.89;;;11.98;16.49
75945;BME280;64628;50.104;14.614;2024-01-11T10:46:24;99768.64;;;10.54;17.43
75945;BME280;64628;50.104;14.614;2024-01-11T10:48:48;99780.69;;;8.20;19.51
75945;BME280;64628;50.104;14.614;2024-01-11T10:51:16;99794.40;;;7.11;21.30
75945;BME280;64628;50.104;14.614;2024-01-11T10:53:43;99803.83;;;6.71;22.03
75945;BME280;64628;50.104;14.614;2024-01-11T10:56:05;99804.32;;;5.93;22.73
75945;BME280;64628;50.104;14.614;2024-01-11T10:58:30;99795.19;;;7.87;21.85
75945;BME280;64628;50.104;14.614;2024-01-11T11:00:56;99780.93;;;9.10;20.33
75945;BME280;64628;50.104;14.614;2024-01-11T11:03:22;99777.90;;;10.81;18.94
75945;BME280;64628;50.104;14.614;2024-01-11T11:05:48;99773.75;;;12.33;17.22
75945;BME280;64628;50.104;14.614;2024-01-11T11:08:12;99768.49;;;13.69;16.10
75945;BME280;64628;50.104;14.614;2024-01-11T11:10:39;99745.91;;;13.86;15.43
75945;BME280;64628;50.104;14.614;2024-01-11T11:13:03;99745.22;;;14.36;15.05
75945;BME280;64628;50.104;14.614;2024-01-11T11:15:28;99744.91;;;13.75;15.67
75945;BME280;64628;50.104;14.614;2024-01-11T11:17:54;99743.12;;;12.88;16.07
75945;BME280;64628;50.104;14.614;2024-01-11T11:20:19;99740.55;;;11.50;16.94
75945;BME280;64628;50.104;14.614;2024-01-11T11:22:48;99746.03;;;10.48;18.14
75945;BME280;64628;50.104;14.614;2024-01-11T11:25:11;99750.17;;;9.46;19.29
75945;BME280;64628;50.104;14.614;2024-01-11T11:27:37;99754.95;;;8.25;20.42
75945;BME280;64628;50.104;14.614;2024-01-11T11:30:02;99749.84;;;7.31;21.52
75945;BME280;64628;50.104;14.614;2024-01-11T11:32:35;99742.37;;;6.90;22.45
75945;BME280;64628;50.104;14.614;2024-01-11T11:34:53;99734.48;;;6.40;23.17
75945;BME280;64628;50.104;14.614;2024-01-11T11:37:23;99730.55;;;5.58;23.74
75945;BME280;64628;50.104;14.614;2024-01-11T11:39:44;99729.87;;;5.20;24.62
75945;BME280;64628;50.104;14.614;2024-01-11T11:42:10;99719.54;;;5.08;25.00
75945;BME280;64628;50.104;14.614;2024-01-11T11:44:35;99706.37;;;4.46;25.93
75945;BME280;64628;50.104;14.614;2024-01-11T11:51:56;99711.16;;;4.01;27.04
75945;BME280;64628;50.104;14.614;2024-01-11T11:54:18;99704.26;;;3.79;27.24
75945;BME280;64628;50.104;14.614;2024-01-11T11:56:43;99691.88;;;3.63;27.57
75945;BME280;64628;50.104;14.614;2024-01-11T11:59:09;99688.69;;;3.32;28.15
75945;BME280;64628;50.104;14.614;2024-01-11T12:01:34;99685.57;;;3.57;28.63
75945;BME280;64628;50.104;14.614;2024-01-11T12:03:58;99676.48;;;3.47;29.01
75945;BME280;64628;50.104;14.614;2024-01-11T12:06:24;99676.05;;;3.13;28.96
75945;BME280;64628;50.104;14.614;2024-01-11T12:08:52;99668.20;;;3.41;29.06
75945;BME280;64628;50.104;14.614;2024-01-11T12:11:17;99655.31;;;3.63;28.90
75945;BME280;64628;50.104;14.614;2024-01-11T12:13:41;99645.34;;;3.00;29.34
75945;BME280;64628;50.104;14.614;2024-01-11T12:16:06;99643.45;;;3.19;29.75
75945;BME280;64628;50.104;14.614;2024-01-11T12:18:31;99640.73;;;3.28;29.75
75945;BME280;64628;50.104;14.614;2024-01-11T12:20:56;99642.84;;;3.59;29.54
75945;BME280;64628;50.104;14.614;2024-01-11T12:23:22;99637.81;;;3.15;29.87
75945;BME280;64628;50.104;14.614;2024-01-11T12:25:47;99636.35;;;2.99;29.79
75945;BME280;64628;50.104;14.614;2024-01-11T12:28:12;99633.95;;;2.78;30.20
75945;BME280;64628;50.104;14.614;2024-01-11T12:30:38;99637.70;;;3.17;30.10
75945;BME280;64628;50.104;14.614;2024-01-11T12:33:04;99629.61;;;3.58;30.09
75945;BME280;64628;50.104;14.614;2024-01-11T12:35:29;99634.68;;;3.80;29.73
75945;BME280;64628;50.104;14.614;2024-01-11T12:37:55;99637.77;;;4.33;29.19
75945;BME280;64628;50.104;14.614;2024-01-11T12:40:20;99639.04;;;4.26;29.05
75945;BME280;64628;50.104;14.614;2024-01-11T12:42:45;99642.35;;;4.63;28.64
75945;BME280;64628;50.104;14.614;2024-01-11T12:45:11;99638.87;;;4.58;28.39
75945;BME280;64628;50.104;14.614;2024-01-11T12:47:36;99631.00;;;4.04;28.69
75945;BME280;64628;50.104;14.614;2024-01-11T12:50:02;99622.34;;;3.84;28.90